CheckWX is a tool to help pilots better visualize weather data.  It is not intended as a substitute for an official pre-flight weather briefing.

05:12:25 UTC

46D METAR
Carrington Municipal Airport
Carrington, North Dakota, USA
Current

17 mins ago

K46D 260455Z AUTO 17008KT 9SM CLR 16/15 A2976 RMK AO2
Observed
Aug-26 @ 04:55 UTC
Wind
  • 170° at 8 KTS
Visibility
9 SM
Flight Rules
VFR
Cloud Levels
  • Clear skies
Temperature
16°C / 61°F
Dewpoint
15°C / 59°F
Humidity
94%
Altimeter
29.76" Hg
Pressure
1007.82 hPa
Previous

37 mins ago

K46D 260435Z AUTO 19010KT 9SM CLR 16/15 A2974 RMK AO2
Observed
Aug-26 @ 04:35 UTC
Wind
  • 190° at 10 KTS
Visibility
9 SM
Flight Rules
VFR
Cloud Levels
  • Clear skies
Temperature
16°C / 61°F
Dewpoint
15°C / 59°F
Humidity
94%
Altimeter
29.74" Hg
Pressure
1007.12 hPa
Previous

57 mins ago

K46D 260415Z AUTO 19010KT 9SM CLR 16/15 A2972 RMK AO2
Observed
Aug-26 @ 04:15 UTC
Wind
  • 190° at 10 KTS
Visibility
9 SM
Flight Rules
VFR
Cloud Levels
  • Clear skies
Temperature
16°C / 61°F
Dewpoint
15°C / 59°F
Humidity
94%
Altimeter
29.72" Hg
Pressure
1006.42 hPa